createdAt,value
2016-12-03T00:00:21.122Z,0
2016-12-03T00:01:31.252Z,0
2016-12-03T00:02:40.789Z,0
2016-12-03T00:03:50.829Z,0
2016-12-03T00:05:00.939Z,0
2016-12-03T00:06:10.425Z,0
2016-12-03T00:07:20.149Z,0
2016-12-03T00:08:29.351Z,0
2016-12-03T00:09:39.396Z,0
2016-12-03T00:10:49.415Z,0
2016-12-03T00:11:59.472Z,0
2016-12-03T00:13:09.227Z,0
2016-12-03T00:14:19.228Z,0
2016-12-03T00:15:29.254Z,0
2016-12-03T00:16:39.255Z,0
2016-12-03T00:17:48.396Z,0
2016-12-03T00:18:58.131Z,0
2016-12-03T00:20:08.456Z,0
2016-12-03T00:21:17.921Z,0
2016-12-03T00:22:28.006Z,0
2016-12-03T00:23:37.538Z,0
2016-12-03T00:24:46.648Z,0
2016-12-03T00:25:55.738Z,0
2016-12-03T00:27:05.558Z,0
2016-12-03T00:28:15.314Z,0
2016-12-03T00:29:24.993Z,0
2016-12-03T00:30:34.496Z,0
2016-12-03T00:31:44.250Z,0
2016-12-03T00:32:53.968Z,0
2016-12-03T00:34:04.322Z,0
2016-12-03T00:35:14.673Z,0
2016-12-03T00:36:24.398Z,0
2016-12-03T00:37:33.832Z,0
2016-12-03T00:38:43.899Z,0
2016-12-03T00:39:53.299Z,0
2016-12-03T00:41:02.701Z,0
2016-12-03T00:42:12.697Z,0
2016-12-03T00:43:22.364Z,0
2016-12-03T00:44:32.768Z,0
2016-12-03T00:45:42.482Z,0
2016-12-03T00:46:51.876Z,0
2016-12-03T00:48:02.037Z,0
2016-12-03T00:49:12.449Z,0
2016-12-03T00:50:22.174Z,0
2016-12-03T00:51:32.527Z,0
2016-12-03T00:52:42.545Z,0
2016-12-03T00:53:52.246Z,0
2016-12-03T00:55:02.571Z,0
2016-12-03T00:56:12.052Z,0
2016-12-03T00:57:22.060Z,0
2016-12-03T00:58:31.756Z,0
2016-12-03T00:59:41.451Z,0
2016-12-03T01:00:51.857Z,0
2016-12-03T01:02:02.180Z,0
2016-12-03T01:03:12.501Z,0
2016-12-03T01:04:22.266Z,0
2016-12-03T01:05:32.289Z,0
2016-12-03T01:06:42.325Z,0
2016-12-03T01:07:51.817Z,0
2016-12-03T01:09:01.837Z,0
2016-12-03T01:10:11.565Z,0
2016-12-03T01:11:21.868Z,0
2016-12-03T01:12:31.903Z,0
2016-12-03T01:13:42.007Z,0
2016-12-03T01:14:52.436Z,0
2016-12-03T01:16:02.834Z,0
2016-12-03T01:17:12.524Z,0
2016-12-03T01:18:21.927Z,0
2016-12-03T01:19:31.953Z,0
2016-12-03T01:20:41.708Z,0
2016-12-03T01:21:51.106Z,0
2016-12-03T01:23:00.826Z,0
2016-12-03T01:24:10.524Z,0
2016-12-03T01:25:20.641Z,0
2016-12-03T01:26:30.482Z,0
2016-12-03T01:27:40.185Z,0
2016-12-03T01:28:50.185Z,0
2016-12-03T01:29:59.874Z,0
2016-12-03T01:31:09.301Z,0
2016-12-03T01:32:18.686Z,0
2016-12-03T01:33:28.409Z,0
2016-12-03T01:34:38.730Z,0
2016-12-03T01:35:48.266Z,0
2016-12-03T01:36:57.953Z,0
2016-12-03T01:38:08.264Z,0
2016-12-03T01:39:18.260Z,0
2016-12-03T01:40:27.967Z,0
2016-12-03T01:41:37.674Z,0
2016-12-03T01:42:47.375Z,0
2016-12-03T01:43:57.382Z,0
2016-12-03T01:45:07.497Z,0
2016-12-03T01:46:16.876Z,0
2016-12-03T01:47:26.994Z,0
2016-12-03T01:48:37.025Z,0
2016-12-03T01:49:47.335Z,0
2016-12-03T01:50:57.027Z,0
2016-12-03T01:52:07.499Z,0
2016-12-03T01:53:16.897Z,0
2016-12-03T01:54:26.954Z,0
2016-12-03T01:55:36.377Z,0
2016-12-03T01:56:46.130Z,0
2016-12-03T01:57:56.185Z,0
2016-12-03T01:59:05.890Z,0
2016-12-03T02:00:16.215Z,0
2016-12-03T02:01:26.528Z,0
2016-12-03T02:02:36.951Z,0
2016-12-03T02:03:46.748Z,0
2016-12-03T02:04:56.923Z,0
2016-12-03T02:06:06.644Z,0
2016-12-03T02:07:16.663Z,0
2016-12-03T02:08:26.067Z,0
2016-12-03T02:09:36.073Z,0
2016-12-03T02:10:45.435Z,0
2016-12-03T02:11:55.134Z,0
2016-12-03T02:13:05.230Z,0
2016-12-03T02:14:14.935Z,0
2016-12-03T02:15:25.048Z,0
2016-12-03T02:16:34.764Z,0
2016-12-03T02:17:44.787Z,0
2016-12-03T02:18:54.177Z,0
2016-12-03T02:20:03.320Z,0
2016-12-03T02:21:13.145Z,0
2016-12-03T02:22:22.568Z,0
2016-12-03T02:23:32.886Z,0
2016-12-03T02:24:43.233Z,0
2016-12-03T02:25:53.232Z,0
2016-12-03T02:27:02.918Z,0
2016-12-03T02:28:12.952Z,0
2016-12-03T02:29:22.321Z,0
2016-12-03T02:30:32.380Z,0
2016-12-03T02:31:42.116Z,0
2016-12-03T02:32:52.208Z,0
2016-12-03T02:34:01.937Z,0
2016-12-03T02:35:11.035Z,0
2016-12-03T02:36:20.416Z,0
2016-12-03T02:37:30.110Z,0
2016-12-03T02:38:39.798Z,0
2016-12-03T02:39:50.107Z,0
2016-12-03T02:40:59.828Z,0
2016-12-03T02:42:09.517Z,0
2016-12-03T02:43:18.915Z,0
2016-12-03T02:44:28.601Z,0
2016-12-03T02:45:38.606Z,0
2016-12-03T02:46:48.449Z,0
2016-12-03T02:47:58.199Z,0
2016-12-03T02:49:08.528Z,0
2016-12-03T02:50:18.643Z,0
2016-12-03T02:51:27.528Z,0
2016-12-03T02:52:36.653Z,0
2016-12-03T02:53:46.068Z,0
2016-12-03T02:54:56.152Z,0
2016-12-03T02:56:06.219Z,0
2016-12-03T02:57:16.538Z,0
2016-12-03T02:58:26.248Z,0
2016-12-03T02:59:35.945Z,0
2016-12-03T03:00:45.946Z,0
2016-12-03T03:01:55.627Z,0
2016-12-03T03:03:05.671Z,0
2016-12-03T03:04:15.048Z,0
2016-12-03T03:05:24.758Z,0
2016-12-03T03:06:34.456Z,0
2016-12-03T03:07:44.137Z,0
2016-12-03T03:08:53.942Z,0
2016-12-03T03:10:03.017Z,0
2016-12-03T03:11:12.242Z,0
2016-12-03T03:12:21.635Z,0
2016-12-03T03:13:31.364Z,0
2016-12-03T03:14:41.067Z,0
2016-12-03T03:15:50.889Z,0
2016-12-03T03:17:00.888Z,0
2016-12-03T03:18:10.892Z,0
2016-12-03T03:19:20.699Z,0
2016-12-03T03:20:30.174Z,0
2016-12-03T03:21:40.173Z,0
2016-12-03T03:22:50.164Z,0
2016-12-03T03:23:59.966Z,0
2016-12-03T03:25:09.338Z,0
2016-12-03T03:26:18.720Z,0
2016-12-03T03:27:28.191Z,0
2016-12-03T03:28:37.272Z,0
2016-12-03T03:29:47.289Z,0
2016-12-03T03:30:57.706Z,0
2016-12-03T03:32:06.476Z,0
2016-12-03T03:33:16.273Z,0
2016-12-03T03:34:26.263Z,0
2016-12-03T03:35:35.700Z,0
2016-12-03T03:36:45.095Z,0
2016-12-03T03:37:54.476Z,0
2016-12-03T03:39:03.876Z,0
2016-12-03T03:40:13.950Z,0
2016-12-03T03:41:23.023Z,0
2016-12-03T03:42:32.818Z,0
2016-12-03T03:43:42.828Z,0
2016-12-03T03:44:51.927Z,0
2016-12-03T03:46:01.426Z,0
2016-12-03T03:47:11.451Z,0
2016-12-03T03:48:20.516Z,0
2016-12-03T03:49:29.907Z,0
2016-12-03T03:50:39.976Z,0
2016-12-03T03:51:50.296Z,0
2016-12-03T03:52:59.792Z,0
2016-12-03T03:54:09.886Z,0
2016-12-03T03:55:19.596Z,0
2016-12-03T03:56:29.351Z,0
2016-12-03T03:57:38.742Z,0
2016-12-03T03:58:48.246Z,0
2016-12-03T03:59:57.928Z,0
2016-12-03T04:01:07.926Z,0
2016-12-03T04:02:17.941Z,0
2016-12-03T04:03:27.330Z,0
2016-12-03T04:04:37.096Z,0
2016-12-03T04:05:47.412Z,0
2016-12-03T04:06:57.419Z,0
2016-12-03T04:08:06.803Z,0
2016-12-03T04:09:16.947Z,0
2016-12-03T04:10:26.394Z,0
2016-12-03T04:11:36.128Z,0
2016-12-03T04:12:46.132Z,0
2016-12-03T04:13:55.210Z,0
2016-12-03T04:15:05.208Z,0
2016-12-03T04:16:15.512Z,0
2016-12-03T04:17:25.843Z,0
2016-12-03T04:18:36.006Z,0
2016-12-03T04:19:45.694Z,0
2016-12-03T04:20:55.783Z,0
2016-12-03T04:22:05.566Z,0
2016-12-03T04:23:15.262Z,0
2016-12-03T04:24:24.651Z,0
2016-12-03T04:25:34.408Z,0
2016-12-03T04:26:44.131Z,0
2016-12-03T04:27:54.453Z,0
2016-12-03T04:29:03.603Z,0
2016-12-03T04:30:12.700Z,0
2016-12-03T04:31:22.770Z,0
2016-12-03T04:32:32.461Z,0
2016-12-03T04:33:41.856Z,0
2016-12-03T04:34:51.569Z,0
2016-12-03T04:36:01.361Z,0
2016-12-03T04:37:11.361Z,0
2016-12-03T04:38:21.059Z,0
2016-12-03T04:39:30.129Z,0
2016-12-03T04:40:40.132Z,0
2016-12-03T04:41:50.504Z,0
2016-12-03T04:42:59.382Z,0
2016-12-03T04:44:08.769Z,0
2016-12-03T04:45:18.183Z,0
2016-12-03T04:46:27.879Z,0
2016-12-03T04:47:37.567Z,0
2016-12-03T04:48:47.553Z,0
2016-12-03T04:49:57.868Z,0
2016-12-03T04:51:07.563Z,0
2016-12-03T04:52:17.255Z,0
2016-12-03T04:53:26.641Z,0
2016-12-03T04:54:36.361Z,0
2016-12-03T04:55:46.479Z,0
2016-12-03T04:56:55.900Z,0
2016-12-03T04:58:04.980Z,0
2016-12-03T04:59:15.286Z,0
2016-12-03T05:00:25.711Z,0
2016-12-03T05:01:36.020Z,0
2016-12-03T05:02:45.428Z,0
2016-12-03T05:03:55.793Z,0
2016-12-03T05:05:05.192Z,0
2016-12-03T05:06:15.191Z,0
2016-12-03T05:07:25.001Z,0
2016-12-03T05:08:34.713Z,0
2016-12-03T05:09:44.759Z,0
2016-12-03T05:10:54.761Z,0
2016-12-03T05:12:04.761Z,0
2016-12-03T05:13:14.747Z,0
2016-12-03T05:14:24.441Z,0
2016-12-03T05:15:34.551Z,0
2016-12-03T05:16:43.662Z,0
2016-12-03T05:17:53.731Z,0
2016-12-03T05:19:03.731Z,0
2016-12-03T05:20:12.811Z,0
2016-12-03T05:21:22.680Z,0
2016-12-03T05:22:31.833Z,0
2016-12-03T05:23:41.867Z,0
2016-12-03T05:24:51.313Z,0
2016-12-03T05:26:01.440Z,0
2016-12-03T05:27:10.511Z,0
2016-12-03T05:28:19.601Z,0
2016-12-03T05:29:29.621Z,0
2016-12-03T05:30:39.793Z,0
2016-12-03T05:31:49.811Z,0
2016-12-03T05:32:59.523Z,0
2016-12-03T05:34:09.839Z,0
2016-12-03T05:35:19.560Z,0
2016-12-03T05:36:29.238Z,0
2016-12-03T05:37:38.946Z,0
2016-12-03T05:38:48.432Z,0
2016-12-03T05:39:58.436Z,0
2016-12-03T05:41:07.568Z,0
2016-12-03T05:42:16.951Z,0
2016-12-03T05:43:27.282Z,0
2016-12-03T05:44:36.683Z,0
2016-12-03T05:45:46.399Z,0
2016-12-03T05:46:56.541Z,0
2016-12-03T05:48:05.763Z,0
2016-12-03T05:49:16.052Z,0
2016-12-03T05:50:26.017Z,0
2016-12-03T05:51:35.091Z,0
2016-12-03T05:52:45.395Z,0
2016-12-03T05:53:54.783Z,0
2016-12-03T05:55:04.219Z,0
2016-12-03T05:56:13.971Z,0
2016-12-03T05:57:22.750Z,0
2016-12-03T05:58:32.741Z,0
2016-12-03T05:59:42.272Z,0
2016-12-03T06:00:52.261Z,0
2016-12-03T06:02:01.053Z,0
2016-12-03T06:03:10.122Z,0
2016-12-03T06:04:19.843Z,0
2016-12-03T06:05:29.214Z,0
2016-12-03T06:06:38.928Z,0
2016-12-03T06:07:48.632Z,0
2016-12-03T06:08:58.046Z,0
2016-12-03T06:10:07.752Z,0
2016-12-03T06:11:17.452Z,0
2016-12-03T06:12:27.211Z,0
2016-12-03T06:13:36.592Z,0
2016-12-03T06:14:45.803Z,0
2016-12-03T06:15:54.896Z,0
2016-12-03T06:17:04.924Z,0
2016-12-03T06:18:15.242Z,0
2016-12-03T06:19:24.936Z,0
2016-12-03T06:20:33.722Z,0
2016-12-03T06:21:43.412Z,0
2016-12-03T06:22:53.290Z,0
2016-12-03T06:24:03.004Z,0
2016-12-03T06:25:12.953Z,0
2016-12-03T06:26:23.042Z,0
2016-12-03T06:27:33.541Z,0
2016-12-03T06:28:43.652Z,0
2016-12-03T06:29:53.051Z,0
2016-12-03T06:31:02.883Z,0
2016-12-03T06:32:12.579Z,0
2016-12-03T06:33:22.249Z,0
2016-12-03T06:34:32.286Z,0
2016-12-03T06:35:42.609Z,0
2016-12-03T06:36:51.524Z,0
2016-12-03T06:38:01.292Z,0
2016-12-03T06:39:11.193Z,0
2016-12-03T06:40:20.635Z,0
2016-12-03T06:41:30.665Z,0
2016-12-03T06:42:40.661Z,0
2016-12-03T06:43:50.411Z,0
2016-12-03T06:44:59.176Z,0
2016-12-03T06:46:09.205Z,0
2016-12-03T06:47:19.223Z,0
2016-12-03T06:48:28.940Z,0
2016-12-03T06:49:38.422Z,0
2016-12-03T06:50:48.206Z,0
2016-12-03T06:51:57.878Z,0
2016-12-03T06:53:07.633Z,0
2016-12-03T06:54:17.025Z,0
2016-12-03T06:55:26.836Z,0
2016-12-03T06:56:36.544Z,0
2016-12-03T06:57:46.974Z,0
2016-12-03T06:58:56.696Z,0
2016-12-03T07:00:06.704Z,0
2016-12-03T07:01:16.605Z,0
2016-12-03T07:02:26.624Z,0
2016-12-03T07:03:35.790Z,0
2016-12-03T07:04:45.951Z,0
2016-12-03T07:05:55.667Z,0
2016-12-03T07:07:05.330Z,0
2016-12-03T07:08:14.098Z,0
2016-12-03T07:09:24.126Z,0
2016-12-03T07:10:33.867Z,0
2016-12-03T07:11:44.203Z,0
2016-12-03T07:12:53.708Z,0
2016-12-03T07:14:03.618Z,0
2016-12-03T07:15:13.259Z,0
2016-12-03T07:16:23.581Z,0
2016-12-03T07:17:33.597Z,0
2016-12-03T07:18:43.281Z,0
2016-12-03T07:19:52.658Z,0
2016-12-03T07:21:02.047Z,0
2016-12-03T07:22:10.925Z,0
2016-12-03T07:23:19.705Z,0
2016-12-03T07:24:29.401Z,0
2016-12-03T07:25:39.099Z,0
2016-12-03T07:26:49.196Z,0
2016-12-03T07:27:58.747Z,0
2016-12-03T07:29:08.139Z,0
2016-12-03T07:30:17.989Z,0
2016-12-03T07:31:27.693Z,0
2016-12-03T07:32:36.797Z,0
2016-12-03T07:33:46.195Z,0
2016-12-03T07:34:56.308Z,5
2016-12-03T07:36:06.629Z,5
2016-12-03T07:37:16.650Z,5
2016-12-03T07:38:25.873Z,5
2016-12-03T07:39:36.665Z,5
2016-12-03T07:40:46.713Z,5
2016-12-03T07:41:57.326Z,10
2016-12-03T07:43:07.491Z,10
2016-12-03T07:44:17.515Z,10
2016-12-03T07:45:26.288Z,10
2016-12-03T07:46:36.720Z,10
2016-12-03T07:47:46.730Z,10
2016-12-03T07:48:56.720Z,10
2016-12-03T07:50:06.119Z,10
2016-12-03T07:51:15.836Z,10
2016-12-03T07:52:25.868Z,10
2016-12-03T07:53:35.765Z,10
2016-12-03T07:54:45.191Z,10
2016-12-03T07:55:54.660Z,10
2016-12-03T07:57:04.678Z,10
2016-12-03T07:58:14.188Z,15
2016-12-03T07:59:23.700Z,15
2016-12-03T08:00:33.775Z,15
2016-12-03T08:01:43.163Z,15
2016-12-03T08:02:52.556Z,15
2016-12-03T08:04:02.908Z,15
2016-12-03T08:05:12.712Z,15
2016-12-03T08:06:22.712Z,15
2016-12-03T08:07:33.032Z,15
2016-12-03T08:08:42.533Z,15
2016-12-03T08:09:52.242Z,15
2016-12-03T08:11:01.442Z,15
2016-12-03T08:12:11.962Z,20
2016-12-03T08:13:22.058Z,20
2016-12-03T08:14:32.050Z,20
2016-12-03T08:15:42.101Z,20
2016-12-03T08:16:51.502Z,20
2016-12-03T08:18:00.986Z,20
2016-12-03T08:19:10.683Z,20
2016-12-03T08:20:20.722Z,20
2016-12-03T08:21:30.607Z,20
2016-12-03T08:22:40.371Z,20
2016-12-03T08:23:50.389Z,20
2016-12-03T08:25:00.115Z,20
2016-12-03T08:26:10.537Z,20
2016-12-03T08:27:20.231Z,20
2016-12-03T08:28:29.371Z,25
2016-12-03T08:29:39.441Z,20
2016-12-03T08:30:49.791Z,20
2016-12-03T08:31:59.502Z,20
2016-12-03T08:33:09.823Z,20
2016-12-03T08:34:19.541Z,20
2016-12-03T08:35:29.572Z,20
2016-12-03T08:36:39.589Z,20
2016-12-03T08:37:49.644Z,20
2016-12-03T08:38:59.670Z,20
2016-12-03T08:40:09.234Z,20
2016-12-03T08:41:18.661Z,25
2016-12-03T08:42:28.681Z,25
2016-12-03T08:43:38.713Z,25
2016-12-03T08:44:48.748Z,25
2016-12-03T08:45:58.811Z,25
2016-12-03T08:47:08.191Z,25
2016-12-03T08:48:18.071Z,25
2016-12-03T08:49:27.761Z,25
2016-12-03T08:50:37.462Z,25
2016-12-03T08:51:47.798Z,25
2016-12-03T08:52:57.504Z,25
2016-12-03T08:54:07.822Z,25
2016-12-03T08:55:17.844Z,25
2016-12-03T08:56:27.283Z,25
2016-12-03T08:57:37.312Z,25
2016-12-03T08:58:47.450Z,25
2016-12-03T08:59:57.454Z,25
2016-12-03T09:01:07.964Z,25
2016-12-03T09:02:18.288Z,25
2016-12-03T09:03:28.305Z,25
2016-12-03T09:04:37.843Z,25
2016-12-03T09:05:47.908Z,25
2016-12-03T09:06:58.261Z,25
2016-12-03T09:08:08.590Z,25
2016-12-03T09:09:18.627Z,25
2016-12-03T09:10:28.637Z,30
2016-12-03T09:11:38.040Z,30
2016-12-03T09:12:48.239Z,30
2016-12-03T09:13:58.302Z,30
2016-12-03T09:15:07.691Z,30
2016-12-03T09:16:18.082Z,30
2016-12-03T09:17:27.803Z,30
2016-12-03T09:18:37.530Z,30
2016-12-03T09:19:46.930Z,30
2016-12-03T09:20:57.528Z,30
2016-12-03T09:22:06.922Z,30
2016-12-03T09:23:16.635Z,30
2016-12-03T09:24:26.654Z,30
2016-12-03T09:25:37.445Z,30
2016-12-03T09:26:47.272Z,30
2016-12-03T09:27:57.270Z,35
2016-12-03T09:29:07.042Z,35
2016-12-03T09:30:16.888Z,30
2016-12-03T09:31:26.917Z,30
2016-12-03T09:32:37.312Z,30
2016-12-03T09:33:47.032Z,30
2016-12-03T09:34:57.563Z,30
2016-12-03T09:36:07.521Z,30
2016-12-03T09:37:17.611Z,30
2016-12-03T09:38:27.381Z,30
2016-12-03T09:39:36.802Z,30
2016-12-03T09:40:46.701Z,30
2016-12-03T09:41:56.313Z,35
2016-12-03T09:43:06.331Z,35
2016-12-03T09:44:16.339Z,35
2016-12-03T09:45:26.441Z,35
2016-12-03T09:46:36.577Z,35
2016-12-03T09:47:46.899Z,35
2016-12-03T09:48:56.903Z,35
2016-12-03T09:50:07.486Z,35
2016-12-03T09:51:17.547Z,35
2016-12-03T09:52:27.627Z,35
2016-12-03T09:53:37.646Z,35
2016-12-03T09:54:47.647Z,35
2016-12-03T09:55:57.743Z,35
2016-12-03T09:57:07.129Z,35
2016-12-03T09:58:16.869Z,35
2016-12-03T09:59:26.581Z,35
2016-12-03T10:00:36.601Z,35
2016-12-03T10:01:46.319Z,35
2016-12-03T10:02:56.318Z,35
2016-12-03T10:04:06.041Z,35
2016-12-03T10:05:16.049Z,35
2016-12-03T10:06:25.860Z,35
2016-12-03T10:07:35.970Z,35
2016-12-03T10:08:45.773Z,35
2016-12-03T10:09:55.796Z,35
2016-12-03T10:11:05.521Z,35
2016-12-03T10:12:15.531Z,30
2016-12-03T10:13:25.623Z,30
2016-12-03T10:14:35.649Z,30
2016-12-03T10:15:45.459Z,30
2016-12-03T10:16:55.888Z,30
2016-12-03T10:18:05.998Z,30
2016-12-03T10:19:15.399Z,30
2016-12-03T10:20:25.573Z,30
2016-12-03T10:21:35.889Z,30
2016-12-03T10:22:45.598Z,30
2016-12-03T10:23:55.307Z,30
2016-12-03T10:25:04.678Z,30
2016-12-03T10:26:14.092Z,35
2016-12-03T10:27:24.132Z,30
2016-12-03T10:28:34.258Z,30
2016-12-03T10:29:44.450Z,30
2016-12-03T10:30:55.088Z,30
2016-12-03T10:32:05.394Z,30
2016-12-03T10:33:15.428Z,30
2016-12-03T10:34:25.778Z,30
2016-12-03T10:35:35.492Z,35
2016-12-03T10:36:45.319Z,35
2016-12-03T10:37:54.805Z,35
2016-12-03T10:39:04.811Z,35
2016-12-03T10:40:15.128Z,35
2016-12-03T10:41:25.478Z,35
2016-12-03T10:42:35.513Z,35
2016-12-03T10:43:44.961Z,35
2016-12-03T10:44:54.770Z,30
2016-12-03T10:46:04.535Z,30
2016-12-03T10:47:14.854Z,30
2016-12-03T10:48:25.034Z,30
2016-12-03T10:49:35.353Z,30
2016-12-03T10:50:45.264Z,30
2016-12-03T10:51:55.289Z,30
2016-12-03T10:53:05.609Z,30
2016-12-03T10:54:15.298Z,30
2016-12-03T10:55:25.336Z,30
2016-12-03T10:56:35.666Z,30
2016-12-03T10:57:45.703Z,30
2016-12-03T10:58:56.023Z,35
2016-12-03T11:00:05.796Z,35
2016-12-03T11:01:15.276Z,30
2016-12-03T11:02:25.680Z,35
2016-12-03T11:03:35.074Z,35
2016-12-03T11:04:45.067Z,35
2016-12-03T11:05:55.402Z,35
2016-12-03T11:07:05.453Z,30
2016-12-03T11:08:14.952Z,30
2016-12-03T11:09:25.114Z,30
2016-12-03T11:10:34.533Z,30
2016-12-03T11:11:44.953Z,30
2016-12-03T11:12:54.985Z,30
2016-12-03T11:14:05.001Z,30
2016-12-03T11:15:15.451Z,35
2016-12-03T11:16:25.705Z,35
2016-12-03T11:17:35.403Z,35
2016-12-03T11:18:45.113Z,35
2016-12-03T11:19:55.461Z,35
2016-12-03T11:21:05.530Z,35
2016-12-03T11:22:15.002Z,35
2016-12-03T11:23:24.710Z,35
2016-12-03T11:24:34.732Z,35
2016-12-03T11:25:44.433Z,35
2016-12-03T11:26:54.463Z,35
2016-12-03T11:28:04.771Z,35
2016-12-03T11:29:15.372Z,35
2016-12-03T11:30:25.382Z,35
2016-12-03T11:31:35.093Z,35
2016-12-03T11:32:45.536Z,35
2016-12-03T11:33:55.260Z,35
2016-12-03T11:35:04.819Z,30
2016-12-03T11:36:13.971Z,35
2016-12-03T11:37:23.727Z,30
2016-12-03T11:38:33.752Z,30
2016-12-03T11:39:43.821Z,30
2016-12-03T11:40:53.856Z,30
2016-12-03T11:42:04.203Z,30
2016-12-03T11:43:14.230Z,30
2016-12-03T11:44:24.265Z,30
2016-12-03T11:45:34.290Z,30
2016-12-03T11:46:44.072Z,30
2016-12-03T11:47:53.570Z,30
2016-12-03T11:49:03.361Z,30
2016-12-03T11:50:13.099Z,30
2016-12-03T11:51:23.225Z,30
2016-12-03T11:52:33.571Z,30
2016-12-03T11:53:43.963Z,35
2016-12-03T11:54:54.395Z,35
2016-12-03T11:56:04.734Z,35
2016-12-03T11:57:14.442Z,35
2016-12-03T11:58:24.146Z,35
2016-12-03T11:59:34.501Z,35
2016-12-03T12:00:44.855Z,35
2016-12-03T12:01:54.905Z,35
2016-12-03T12:03:04.915Z,35
2016-12-03T12:04:14.301Z,35
2016-12-03T12:05:24.068Z,35
2016-12-03T12:06:34.414Z,35
2016-12-03T12:07:44.153Z,30
2016-12-03T12:08:54.155Z,30
2016-12-03T12:10:03.862Z,30
2016-12-03T12:11:13.575Z,30
2016-12-03T12:12:23.913Z,30
2016-12-03T12:13:34.243Z,30
2016-12-03T12:14:44.291Z,25
2016-12-03T12:15:54.331Z,25
2016-12-03T12:17:04.362Z,25
2016-12-03T12:18:14.386Z,25
2016-12-03T12:19:24.408Z,25
2016-12-03T12:20:33.604Z,25
2016-12-03T12:21:43.982Z,25
2016-12-03T12:22:54.084Z,25
2016-12-03T12:24:04.158Z,25
2016-12-03T12:25:14.295Z,25
2016-12-03T12:26:24.056Z,25
2016-12-03T12:27:34.144Z,25
2016-12-03T12:28:44.204Z,25
2016-12-03T12:29:54.269Z,25
2016-12-03T12:31:04.596Z,25
2016-12-03T12:32:14.308Z,25
2016-12-03T12:33:23.703Z,25
2016-12-03T12:34:33.715Z,25
2016-12-03T12:35:43.514Z,25
2016-12-03T12:36:53.244Z,25
2016-12-03T12:38:03.313Z,25
2016-12-03T12:39:13.357Z,25
2016-12-03T12:40:23.396Z,25
2016-12-03T12:41:33.122Z,25
2016-12-03T12:42:42.820Z,25
2016-12-03T12:43:53.443Z,25
2016-12-03T12:45:03.143Z,25
2016-12-03T12:46:13.463Z,25
2016-12-03T12:47:23.837Z,25
2016-12-03T12:48:33.534Z,25
2016-12-03T12:49:43.596Z,25
2016-12-03T12:50:53.604Z,25
2016-12-03T12:52:03.951Z,25
2016-12-03T12:53:13.657Z,25
2016-12-03T12:54:23.983Z,25
2016-12-03T12:55:33.694Z,25
2016-12-03T12:56:44.023Z,25
2016-12-03T12:57:54.358Z,25
2016-12-03T12:59:04.065Z,25
2016-12-03T13:00:13.848Z,25
2016-12-03T13:01:23.910Z,25
2016-12-03T13:02:33.371Z,25
2016-12-03T13:03:43.496Z,25
2016-12-03T13:04:53.824Z,25
2016-12-03T13:06:03.546Z,25
2016-12-03T13:07:13.291Z,25
2016-12-03T13:08:23.500Z,25
2016-12-03T13:09:33.964Z,25
2016-12-03T13:10:43.739Z,25
2016-12-03T13:11:53.964Z,25
2016-12-03T13:13:03.413Z,25
2016-12-03T13:14:13.650Z,25
2016-12-03T13:15:23.373Z,25
2016-12-03T13:16:33.796Z,25
2016-12-03T13:17:43.189Z,25
2016-12-03T13:18:53.041Z,25
2016-12-03T13:20:02.749Z,25
2016-12-03T13:21:12.780Z,25
2016-12-03T13:22:22.527Z,25
2016-12-03T13:23:32.259Z,20
2016-12-03T13:24:42.287Z,20
2016-12-03T13:25:52.609Z,20
2016-12-03T13:27:02.698Z,20
2016-12-03T13:28:12.092Z,20
2016-12-03T13:29:22.053Z,20
2016-12-03T13:30:31.231Z,20
2016-12-03T13:31:41.289Z,20
2016-12-03T13:32:51.271Z,20
2016-12-03T13:34:01.824Z,20
2016-12-03T13:35:11.248Z,20
2016-12-03T13:36:21.702Z,20
2016-12-03T13:37:31.709Z,20
2016-12-03T13:38:41.330Z,20
2016-12-03T13:39:51.351Z,20
2016-12-03T13:41:01.320Z,20
2016-12-03T13:42:10.715Z,20
2016-12-03T13:43:20.426Z,20
2016-12-03T13:44:29.908Z,20
2016-12-03T13:45:40.088Z,20
2016-12-03T13:46:49.811Z,20
2016-12-03T13:47:59.581Z,20
2016-12-03T13:49:09.629Z,20
2016-12-03T13:50:19.988Z,20
2016-12-03T13:51:30.357Z,20
2016-12-03T13:52:40.107Z,20
2016-12-03T13:53:49.809Z,15
2016-12-03T13:54:59.853Z,15
2016-12-03T13:56:09.879Z,15
2016-12-03T13:57:20.337Z,15
2016-12-03T13:58:29.727Z,15
2016-12-03T13:59:39.762Z,15
2016-12-03T14:00:49.818Z,15
2016-12-03T14:01:59.530Z,15
2016-12-03T14:03:09.237Z,15
2016-12-03T14:04:19.024Z,15
2016-12-03T14:05:29.048Z,15
2016-12-03T14:06:39.437Z,15
2016-12-03T14:07:49.465Z,15
2016-12-03T14:08:59.174Z,15
2016-12-03T14:10:09.525Z,15
2016-12-03T14:11:19.233Z,15
2016-12-03T14:12:29.047Z,15
2016-12-03T14:13:39.136Z,15
2016-12-03T14:14:49.155Z,15
2016-12-03T14:15:59.046Z,15
2016-12-03T14:17:08.774Z,15
2016-12-03T14:18:18.176Z,15
2016-12-03T14:19:27.890Z,10
2016-12-03T14:20:37.906Z,10
2016-12-03T14:21:47.986Z,10
2016-12-03T14:22:58.009Z,10
2016-12-03T14:24:08.024Z,10
2016-12-03T14:25:18.037Z,10
2016-12-03T14:26:28.087Z,10
2016-12-03T14:27:38.400Z,10
2016-12-03T14:28:49.170Z,10
2016-12-03T14:29:59.171Z,10
2016-12-03T14:31:09.163Z,10
2016-12-03T14:32:18.615Z,10
2016-12-03T14:34:00.536Z,10
2016-12-03T14:35:10.539Z,10
2016-12-03T14:36:19.933Z,10
2016-12-03T14:37:30.057Z,10
2016-12-03T14:38:40.068Z,10
2016-12-03T14:39:50.228Z,5
2016-12-03T14:41:00.270Z,5
2016-12-03T14:42:10.376Z,5
2016-12-03T14:43:20.493Z,5
2016-12-03T14:44:30.284Z,5
2016-12-03T14:45:39.999Z,5
2016-12-03T14:46:50.317Z,5
2016-12-03T14:48:00.035Z,5
2016-12-03T14:49:10.062Z,5
2016-12-03T14:50:19.448Z,5
2016-12-03T14:51:29.267Z,5
2016-12-03T14:52:39.392Z,5
2016-12-03T14:53:49.728Z,5
2016-12-03T14:54:59.810Z,5
2016-12-03T14:56:10.146Z,5
2016-12-03T14:57:19.926Z,5
2016-12-03T14:58:29.641Z,5
2016-12-03T14:59:39.383Z,0
2016-12-03T15:00:49.712Z,0
2016-12-03T15:01:59.783Z,0
2016-12-03T15:03:09.543Z,0
2016-12-03T15:04:19.375Z,0
2016-12-03T15:05:29.931Z,0
2016-12-03T15:06:39.955Z,0
2016-12-03T15:07:49.983Z,0
2016-12-03T15:08:59.723Z,0
2016-12-03T15:10:10.101Z,0
2016-12-03T15:11:19.923Z,0
2016-12-03T15:12:29.938Z,0
2016-12-03T15:13:39.958Z,0
2016-12-03T15:14:50.080Z,0
2016-12-03T15:16:00.588Z,0
2016-12-03T15:17:10.979Z,0
2016-12-03T15:18:21.145Z,0
2016-12-03T15:19:31.603Z,0
2016-12-03T15:20:41.965Z,0
2016-12-03T15:21:52.003Z,0
2016-12-03T15:23:02.354Z,0
2016-12-03T15:24:13.644Z,0
2016-12-03T15:25:22.751Z,0
2016-12-03T15:26:32.973Z,0
2016-12-03T15:27:43.036Z,0
2016-12-03T15:28:52.497Z,0
2016-12-03T15:30:02.256Z,0
2016-12-03T15:31:12.376Z,0
2016-12-03T15:32:22.585Z,0
2016-12-03T15:33:32.977Z,0
2016-12-03T15:34:42.757Z,0
2016-12-03T15:35:52.769Z,0
2016-12-03T15:37:02.479Z,0
2016-12-03T15:38:12.249Z,0
2016-12-03T15:39:22.189Z,0
2016-12-03T15:40:32.218Z,0
2016-12-03T15:41:41.674Z,0
2016-12-03T15:42:52.168Z,0
2016-12-03T15:44:02.506Z,0
2016-12-03T15:45:12.231Z,0
2016-12-03T15:46:22.319Z,0
2016-12-03T15:47:32.808Z,0
2016-12-03T15:48:42.251Z,0
2016-12-03T15:49:52.290Z,0
2016-12-03T15:51:02.650Z,0
2016-12-03T15:52:13.016Z,0
2016-12-03T15:53:23.033Z,0
2016-12-03T15:54:33.443Z,0
2016-12-03T15:55:43.780Z,0
2016-12-03T15:56:54.096Z,0
2016-12-03T15:58:03.821Z,0
2016-12-03T15:59:14.211Z,0
2016-12-03T16:00:24.404Z,0
2016-12-03T16:01:34.772Z,0
2016-12-03T16:02:44.559Z,0
2016-12-03T16:03:54.283Z,0
2016-12-03T16:05:04.455Z,0
2016-12-03T16:06:14.560Z,0
2016-12-03T16:07:25.315Z,0
2016-12-03T16:08:35.370Z,0
2016-12-03T16:09:45.413Z,0
2016-12-03T16:10:55.440Z,0
2016-12-03T16:12:05.454Z,0
2016-12-03T16:13:15.292Z,0
2016-12-03T16:14:25.037Z,0
2016-12-03T16:15:34.770Z,0
2016-12-03T16:16:44.851Z,0
2016-12-03T16:17:54.993Z,0
2016-12-03T16:19:05.333Z,0
2016-12-03T16:20:15.695Z,0
2016-12-03T16:21:25.424Z,0
2016-12-03T16:22:35.454Z,0
2016-12-03T16:23:45.685Z,0
2016-12-03T16:24:55.407Z,0
2016-12-03T16:26:05.129Z,0
2016-12-03T16:27:15.569Z,0
2016-12-03T16:28:25.908Z,0
2016-12-03T16:29:36.068Z,0
2016-12-03T16:30:46.404Z,0
2016-12-03T16:31:56.475Z,0
2016-12-03T16:33:06.603Z,0
2016-12-03T16:34:17.216Z,0
2016-12-03T16:35:26.629Z,0
2016-12-03T16:36:37.355Z,0
2016-12-03T16:37:47.714Z,0
2016-12-03T16:38:58.046Z,0
2016-12-03T16:40:07.765Z,0
2016-12-03T16:41:17.518Z,0
2016-12-03T16:42:27.239Z,0
2016-12-03T16:43:37.413Z,0
2016-12-03T16:44:47.239Z,0
2016-12-03T16:45:57.287Z,0
2016-12-03T16:47:06.984Z,0
2016-12-03T16:48:17.340Z,0
2016-12-03T16:49:27.465Z,0
2016-12-03T16:50:37.238Z,0
2016-12-03T16:51:46.662Z,0
2016-12-03T16:52:56.828Z,0
2016-12-03T16:54:07.160Z,0
2016-12-03T16:55:17.527Z,0
2016-12-03T16:56:27.567Z,0
2016-12-03T16:57:37.588Z,0
2016-12-03T16:58:47.909Z,0